Home > Products > Valid Products > TAF

000
FTUS46 KHNX 271128
TAFFAT
TAF
KFAT 271128Z 2712/2812 VRB02KT 5SM HZ BR SCT250=



000
FTUS46 KHNX 271128
TAFMCE
TAF
KMCE 271128Z 2712/2812 00000KT 3SM BR BKN250
      TEMPO 2713/2717 1 1/2SM BR
     FM271800 VRB03KT 5SM HZ SCT250=



000
FTUS46 KHNX 271128
TAFBFL
TAF
KBFL 271128Z 2712/2812 VRB03KT 4SM HZ SKC=



000
FTUS46 KHNX 270520
TAFMCE
TAF
KMCE 270520Z 2706/2806 VRB03KT 4SM HZ SKC
     FM270900 00000KT 3SM BR SKC
      TEMPO 2712/2716 2SM BR
     FM271800 VRB03KT 5SM HZ SCT200=



000
FTUS46 KHNX 270520
TAFFAT
TAF
KFAT 270520Z 2706/2806 00000KT 5SM BR SKC
      TEMPO 2712/2716 2SM BR
     FM272000 VRB03KT 5SM HZ SCT200=



000
FTUS46 KHNX 270520
TAFBFL
TAF
KBFL 270520Z 2706/2806 VRB03KT 4SM HZ SKC=



000
FTUS46 KHNX 262320
TAFMCE
TAF
KMCE 262320Z 2700/2724 VRB03KT 5SM HZ SKC
     FM270900 00000KT 3SM BR SKC
      TEMPO 2712/2716 2SM BR
     FM271800 VRB03KT 5SM HZ SCT200=



000
FTUS46 KHNX 262320
TAFBFL
TAF
KBFL 262320Z 2700/2724 VRB03KT 4SM HZ SKC=



000
FTUS46 KHNX 262320
TAFFAT
TAF
KFAT 262320Z 2700/2724 VRB03KT 6SM HZ SKC
     FM270600 00000KT 4SM BR SKC
      TEMPO 2712/2716 2SM BR
     FM272000 VRB03KT 5SM HZ SCT200=



000
FTUS46 KHNX 261740
TAFBFL
TAF
KBFL 261740Z 2618/2718 VRB03KT 5SM HZ SKC
     FM262100 30003KT 6SM HZ SKC
     FM270900 VRB03KT 5SM BR SKC=



000
FTUS46 KHNX 261740
TAFMCE
TAF
KMCE 261740Z 2618/2718 VRB03KT 5SM HZ SKC
     FM270900 00000KT 3SM BR SKC
      TEMPO 2712/2716 2SM BR
     FM271600 VRB03KT 5SM HZ SKC=



000
FTUS46 KHNX 261740
TAFFAT
TAF
KFAT 261740Z 2618/2718 30003KT P6SM SKC
     FM270300 00000KT 5SM HZ SKC
      TEMPO 2712/2716 3SM BR=



000
FTUS46 KHNX 261140
TAFFAT
TAF
KFAT 261140Z 2612/2712 VRB03KT 4SM BR SKC
      TEMPO 2615/2618 2SM BR=



000
FTUS46 KHNX 261140
TAFMCE
TAF
KMCE 261140Z 2612/2712 VRB03KT 4SM BR SKC
     FM261300 14003KT 2SM BR SCT003
     FM262100 VRB03KT 5SM HZ SKC=



000
FTUS46 KHNX 261140
TAFBFL
TAF
KBFL 261140Z 2612/2712 00000KT 5SM HZ SKC
     FM262000 VRB03KT 6SM HZ SKC=



000
FTUS46 KHNX 260524
TAFFAT
TAF
KFAT 260524Z 2606/2706 VRB03KT 5SM HZ SKC
     FM261200 00000KT 2SM BR SKC
     FM261400 12002KT 1SM BR SKC
     FM261700 13003KT 3SM HZ SKC
     FM262000 00000KT 5SM HZ SKC=



000
FTUS46 KHNX 260524
TAFBFL
TAF
KBFL 260524Z 2606/2706 VRB03KT 6SM HZ SKC
     FM260900 10003KT 4SM BR SKC
     FM261500 00000KT 2SM BR SKC
     FM262000 VRB03KT 4SM HZ SKC=



000
FTUS46 KHNX 260524
TAFMCE
TAF
KMCE 260524Z 2606/2706 VRB03KT 5SM HZ SKC
     FM261000 00000KT 2SM BR SKC
     FM261300 00000KT 1/2SM FG VV003
     FM261700 14003KT 1SM BR SCT003
     FM261900 15004KT 3SM HZ SKC
     FM262100 VRB03KT 5SM HZ SKC=



000
FTUS46 KHNX 252320
TAFMCE
TAF
KMCE 252320Z 2600/2624 VRB03KT P6SM SKC
     FM261000 00000KT 2SM BR SCT250
     FM261300 00000KT 1/2SM FG VV003
     FM261700 14003KT 1SM BR SCT003
     FM262000 15004KT 3SM HZ SKC=



000
FTUS46 KHNX 252320
TAFBFL
TAF
KBFL 252320Z 2600/2624 VRB03KT 6SM HZ SKC
     FM260900 10003KT 4SM BR SKC
     FM261500 00000KT 2SM BR SKC
     FM262000 25003KT 4SM HZ SKC=



000
FTUS46 KHNX 252320
TAFFAT
TAF
KFAT 252320Z 2600/2624 VRB03KT 5SM HZ SKC
     FM261100 00000KT 2SM BR SKC
     FM261400 12002KT 1SM BR FEW250
     FM261700 13003KT 2SM HZ FEW250
     FM262000 00000KT 4SM HZ SKC=



000
FTUS46 KHNX 251748
TAFBFL
TAF
KBFL 251748Z 2518/2618 VRB03KT 5SM HZ SKC
     FM261500 00000KT 2SM BR SKC=



000
FTUS46 KHNX 251748
TAFMCE
TAF
KMCE 251748Z 2518/2618 VRB03KT 5SM HZ SKC
     FM261000 00000KT 2SM BR SCT250
      TEMPO 2613/2617 1/2SM FG VV003
     FM261700 14003KT 1SM BR SKC=



000
FTUS46 KHNX 251748
TAFFAT
TAF
KFAT 251748Z 2518/2618 14003KT 3SM HZ SCT020
     FM252100 29004KT 4SM HZ SKC
     FM261100 00000KT 2SM BR SKC
     FM261500 12002KT 1SM BR FEW250
     FM261700 13003KT 2SM BR FEW250=



000
FTUS46 KHNX 251633 AAA
TAFFAT
TAF AMD
KFAT 251633Z 2517/2612 13003KT 2SM BR SCT002
     FM251800 VRB03KT P6SM SKC=



000
FTUS46 KHNX 251633 AAA
TAFFAT
TAF AMD
KFAT 251633Z 2517/2612 13003KT 2SM BR SCT002
     FM251800 VRB03KT P6SM SKC=



000
FTUS46 KHNX 251130
TAFFAT
TAF
KFAT 251130Z 2512/2612 00000KT 5SM BR SKC
      TEMPO 2512/2516 2SM BR
     FM251800 VRB03KT P6SM SKC=



000
FTUS46 KHNX 251130
TAFBFL
TAF
KBFL 251130Z 2512/2612 00000KT 6SM HZ SKC
      TEMPO 2512/2516 4SM BR=



000
FTUS46 KHNX 251130
TAFMCE
TAF
KMCE 251130Z 2512/2612 12003KT 3SM BR SKC
     FM251300 00000KT 2SM BR SKC
      TEMPO 2513/2517 1/2SM FG VV002
     FM251800 VRB03KT P6SM SKC=



000
FTUS46 KHNX 250531
TAFBFL
TAF
KBFL 250531Z 2506/2606 VRB03KT P6SM SKC
      TEMPO 2512/2516 4SM BR=



000
FTUS46 KHNX 250531
TAFFAT
TAF
KFAT 250531Z 2506/2606 00000KT 4SM BR SKC
      TEMPO 2512/2516 2SM BR
     FM251800 VRB03KT P6SM SKC=



000
FTUS46 KHNX 250531
TAFMCE
TAF
KMCE 250531Z 2506/2606 00000KT 5SM BR SKC
     FM250900 00000KT 2SM BR SKC
     FM251200 00000KT 1SM BR SCT010
      TEMPO 2512/2516 1/4SM FG VV001
     FM251800 VRB03KT P6SM SKC=



000
FTUS46 KHNX 242324
TAFMCE
TAF
KMCE 242324Z 2500/2524 VRB03KT P6SM SKC
     FM250900 00000KT 2SM BR SKC
     FM251200 00000KT 1SM BR SCT010
      TEMPO 2512/2516 1/4SM FG VV001
     FM251800 VRB04KT P6SM SKC=



000
FTUS46 KHNX 242324
TAFBFL
TAF
KBFL 242324Z 2500/2524 33005KT P6SM SKC
      TEMPO 2512/2516 4SM BR=



000
FTUS46 KHNX 242324
TAFFAT
TAF
KFAT 242324Z 2500/2524 31004KT P6SM FEW050
     FM250800 00000KT 4SM BR SKC
      TEMPO 2512/2516 2SM BR
     FM251800 VRB04KT P6SM SKC=



000
FTUS46 KHNX 241807 AAA
TAFMCE
TAF AMD
KMCE 241807Z 2418/2518 VRB03KT 4SM BR SCT002
      TEMPO 2418/2419 BKN002
     FM242000 VRB03KT 6SM HZ SKC
     FM250900 00000KT 2SM BR SKC
     FM251200 00000KT 1/4SM FG VV001=



000
FTUS46 KHNX 241722
TAFBFL
TAF
KBFL 241722Z 2418/2518 VRB03KT P6SM SKC
     FM250900 VRB03KT 4SM HZ SKC=



000
FTUS46 KHNX 241722
TAFMCE
TAF
KMCE 241722Z 2418/2518 00000KT 2SM BR SCT002
      TEMPO 2418/2419 1/2SM FG VV002
     FM241900 VRB03KT 4SM BR SKC
     FM242000 VRB03KT 6SM HZ SKC
     FM250900 00000KT 2SM BR SKC
     FM251200 00000KT 1/4SM FG VV001=



000
FTUS46 KHNX 241722
TAFFAT
TAF
KFAT 241722Z 2418/2518 00000KT 5SM BR SCT035 BKN080
     FM242000 VRB03KT 6SM HZ SKC
     FM250800 00000KT 4SM BR SKC
     FM251400 00000KT 2SM BR SKC=



000
FTUS46 KHNX 241429 AAA
TAFFAT
TAF AMD
KFAT 241429Z 2414/2512 00000KT 5SM BR BKN035
     FM242000 09003KT 6SM HZ SKC
     FM250800 00000KT 4SM BR SKC=



    US Dept of Commerce
    National Oceanic and Atmospheric Administration
    National Weather Service
    1325 East West Highway
    Silver Spring, MD 20910
    Page Author: NWS Internet Services Team
Disclaimer
Information Quality
Credits
Glossary
Privacy Policy
Freedom of Information Act (FOIA)
About Us
Career Opportunities